Time;durP1;ratioP1;P1;durP2;ratioP2;P2;SDS_P1;SDS_P2;PMS_P1;PMS_P2;Temp;Humidity;BMP_temperature;BMP_pressure;BME280_temperature;BME280_humidity;BME280_pressure;Samples;Min_cycle;Max_cycle;Signal;HPM_P1;HPM_P2
2021/03/21 00:01:45;;;;;;;15.43;10.88;;;;;;;-3.58;75.70;97328.69;5010058;28;20052;-71
2021/03/21 00:04:15;;;;;;;19.15;11.43;;;;;;;-3.63;76.13;97331.44;4991560;28;20184;-72
2021/03/21 00:06:43;;;;;;;16.00;10.50;;;;;;;-3.67;76.38;97324.81;5008436;28;20069;-72
2021/03/21 00:09:10;;;;;;;14.63;10.20;;;;;;;-3.52;75.64;97328.44;5008456;28;20054;-71
2021/03/21 00:11:37;;;;;;;17.75;11.45;;;;;;;-3.62;76.28;97329.69;4991663;28;20049;-71
2021/03/21 00:14:04;;;;;;;17.27;11.05;;;;;;;-3.64;76.06;97326.41;5007224;28;20054;-71
2021/03/21 00:16:31;;;;;;;13.93;10.13;;;;;;;-3.62;75.56;97322.06;5008957;28;20735;-72
2021/03/21 00:18:58;;;;;;;;;;;;;;;-3.57;75.48;97327.81;4992220;28;20042;-72
2021/03/21 00:21:24;;;;;;;15.00;9.40;;;;;;;-3.67;75.02;97326.53;4976396;28;19983;-71
2021/03/21 00:23:51;;;;;;;13.45;9.88;;;;;;;-3.65;75.04;97324.75;5007266;28;20160;-71
2021/03/21 00:26:18;;;;;;;16.83;9.82;;;;;;;-3.74;75.57;97319.16;5008939;28;20038;-72
2021/03/21 00:28:44;;;;;;;14.82;9.90;;;;;;;-3.77;75.88;97324.34;5008603;28;20046;-71
2021/03/21 00:31:13;;;;;;;15.73;10.00;;;;;;;-3.66;75.00;97323.94;5009622;28;20182;-71
2021/03/21 00:33:41;;;;;;;12.73;9.45;;;;;;;-3.77;76.02;97323.53;5008194;28;20069;-72
2021/03/21 00:36:10;;;;;;;15.52;9.73;;;;;;;-3.78;75.24;97321.91;5008510;28;20394;-71
2021/03/21 00:38:47;;;;;;;15.18;9.43;;;;;;;-3.64;74.06;97306.03;5005939;28;20117;-71
2021/03/21 00:41:15;;;;;;;15.50;9.32;;;;;;;-3.46;74.36;97309.53;5006264;28;20124;-72
2021/03/21 00:43:42;;;;;;;12.65;8.10;;;;;;;-3.55;74.08;97303.13;5006032;28;20069;-71
2021/03/21 00:46:09;;;;;;;15.00;8.57;;;;;;;-3.69;74.45;97308.78;4980448;28;20109;-71
2021/03/21 00:48:39;;;;;;;12.68;8.13;;;;;;;-3.53;73.51;97299.59;5005506;28;20128;-71
2021/03/21 00:51:06;;;;;;;13.68;9.32;;;;;;;-3.61;73.87;97296.56;5008793;28;20045;-71
2021/03/21 00:53:32;;;;;;;13.30;9.30;;;;;;;-3.78;73.66;97278.66;5003990;28;20052;-72
2021/03/21 00:55:59;;;;;;;11.68;8.70;;;;;;;-3.66;73.56;97287.47;5004613;28;20042;-71
2021/03/21 00:58:26;;;;;;;14.95;9.75;;;;;;;-3.73;73.86;97295.34;5006210;28;20398;-71
2021/03/21 01:00:59;;;;;;;12.00;7.95;;;;;;;-3.73;73.79;97284.34;4989098;28;20050;-72
2021/03/21 01:03:26;;;;;;;12.65;8.68;;;;;;;-3.69;74.03;97296.06;5010560;28;20042;-71
2021/03/21 01:06:03;;;;;;;13.70;9.10;;;;;;;-3.70;74.03;97292.69;4993209;28;20042;-71
2021/03/21 01:08:35;;;;;;;13.00;8.85;;;;;;;-3.80;74.62;97291.44;4990990;28;20049;-71
2021/03/21 01:11:08;;;;;;;11.23;8.43;;;;;;;-3.75;74.34;97283.59;5009235;28;20046;-71
2021/03/21 01:13:35;;;;;;;13.30;8.00;;;;;;;-3.81;74.93;97279.63;5007192;28;20119;-72
2021/03/21 01:16:04;;;;;;;10.93;7.80;;;;;;;-3.65;74.47;97277.22;4991936;28;20042;-72
2021/03/21 01:18:35;;;;;;;13.50;9.23;;;;;;;-3.68;74.56;97274.81;4993169;28;20176;-71
2021/03/21 01:21:05;;;;;;;14.20;9.07;;;;;;;-3.64;73.62;97263.63;5008100;28;20046;-71
2021/03/21 01:23:32;;;;;;;13.55;9.27;;;;;;;-3.61;73.63;97275.38;5011418;28;20045;-71
2021/03/21 01:25:58;;;;;;;11.43;8.35;;;;;;;-3.71;74.21;97264.75;5006210;28;20046;-71
2021/03/21 01:28:30;;;;;;;15.05;8.50;;;;;;;-3.60;74.03;97271.94;5008387;28;20453;-72
2021/03/21 01:31:00;;;;;;;12.95;7.45;;;;;;;-3.73;74.17;97264.00;5010738;28;20080;-72
2021/03/21 01:33:29;;;;;;;12.88;7.63;;;;;;;-3.71;74.04;97257.13;5005822;28;20054;-72
2021/03/21 01:35:55;;;;;;;11.63;7.82;;;;;;;-3.62;74.28;97263.53;5009259;28;20449;-72
2021/03/21 01:38:22;;;;;;;13.73;8.45;;;;;;;-3.65;74.35;97258.59;4990724;28;20496;-72
2021/03/21 01:40:51;;;;;;;11.90;8.48;;;;;;;-3.58;73.75;97259.97;5010315;28;20046;-72
2021/03/21 01:43:21;;;;;;;14.02;8.75;;;;;;;-3.69;74.06;97262.97;5009222;28;20046;-72
2021/03/21 01:45:49;;;;;;;13.20;7.28;;;;;;;-3.49;72.65;97257.84;5001449;28;20053;-72
2021/03/21 01:48:21;;;;;;;10.32;7.53;;;;;;;-3.57;73.32;97259.91;4993115;28;20061;-72
2021/03/21 01:50:58;;;;;;;12.23;8.07;;;;;;;-3.53;73.14;97248.69;5008099;28;20057;-72
2021/03/21 01:53:27;;;;;;;12.60;7.75;;;;;;;-3.63;73.19;97250.00;5005088;28;20081;-72
2021/03/21 01:55:54;;;;;;;9.70;7.65;;;;;;;-3.58;72.65;97240.44;4977399;28;20046;-72
2021/03/21 01:58:24;;;;;;;10.35;7.05;;;;;;;-3.63;73.02;97242.34;5007164;28;20045;-72
2021/03/21 02:00:58;;;;;;;13.68;7.40;;;;;;;-3.66;73.09;97239.97;5010364;28;20041;-72
2021/03/21 02:03:25;;;;;;;9.60;7.18;;;;;;;-3.57;72.61;97244.63;5009010;28;20462;-72
2021/03/21 02:06:07;;;;;;;12.63;7.07;;;;;;;-3.59;72.31;97228.59;4989239;28;20037;-72
2021/03/21 02:08:43;;;;;;;11.65;7.75;;;;;;;-3.64;73.28;97220.38;5008643;28;20038;-72
2021/03/21 02:11:33;;;;;;;11.57;7.00;;;;;;;-3.64;72.93;97220.38;5012437;28;20042;-72
2021/03/21 02:14:15;;;;;;;12.25;6.75;;;;;;;-3.69;72.64;97219.72;5009061;28;20042;-72
2021/03/21 02:17:32;;;;;;;13.68;7.45;;;;;;;-3.60;72.52;97223.56;5007171;28;20081;-72
2021/03/21 02:20:36;;;;;;;10.10;6.57;;;;;;;-3.63;72.43;97214.38;5005619;28;20113;-72
2021/03/21 02:23:15;;;;;;;9.73;6.63;;;;;;;-3.53;72.82;97202.88;5014417;28;20050;-72
2021/03/21 02:26:04;;;;;;;10.50;6.63;;;;;;;-3.55;72.29;97209.75;5010877;28;20046;-72
2021/03/21 02:29:03;;;;;;;11.05;6.32;;;;;;;-3.60;71.60;97203.22;5009876;28;20037;-72
2021/03/21 02:31:47;;;;;;;10.55;6.80;;;;;;;-3.54;71.64;97198.69;4996726;28;20137;-71
2021/03/21 02:34:23;;;;;;;10.48;6.85;;;;;;;-3.52;71.69;97198.63;5008796;28;20099;-72
2021/03/21 02:36:56;;;;;;;11.05;7.20;;;;;;;-3.71;72.73;97185.88;5009209;28;20050;-72
2021/03/21 02:39:39;;;;;;;10.77;5.95;;;;;;;-3.61;72.19;97194.75;5008181;28;20141;-72
2021/03/21 02:42:08;;;;;;;13.70;7.10;;;;;;;-3.64;72.70;97188.97;4994071;28;20054;-72
2021/03/21 02:44:48;;;;;;;11.65;6.80;;;;;;;-3.52;72.37;97185.88;5013111;28;20205;-72
2021/03/21 02:47:20;;;;;;;9.52;6.68;;;;;;;-3.69;72.88;97172.19;5008107;28;20046;-72
2021/03/21 02:49:49;;;;;;;11.02;7.15;;;;;;;-3.72;72.62;97172.34;5012176;28;20040;-72
2021/03/21 02:52:23;;;;;;;10.13;7.07;;;;;;;-3.63;72.44;97170.28;5008149;28;20053;-72
2021/03/21 02:54:59;;;;;;;8.48;6.32;;;;;;;-3.55;72.37;97189.41;5011137;28;20124;-72
2021/03/21 02:57:31;;;;;;;12.48;6.97;;;;;;;-3.56;72.29;97180.09;5008564;28;20041;-72
2021/03/21 02:59:59;;;;;;;10.95;6.80;;;;;;;-3.50;72.01;97187.47;5010162;28;20042;-72
2021/03/21 03:02:30;;;;;;;9.25;6.25;;;;;;;-3.45;72.31;97172.00;5008291;28;20060;-72
2021/03/21 03:05:06;;;;;;;9.35;5.82;;;;;;;-3.58;72.38;97171.72;5010150;28;20046;-72
2021/03/21 03:07:41;;;;;;;9.45;6.38;;;;;;;-3.54;72.55;97170.69;5010364;28;20037;-71
2021/03/21 03:10:16;;;;;;;8.82;6.47;;;;;;;-3.46;72.43;97172.88;5009626;28;20073;-72
2021/03/21 03:12:48;;;;;;;8.98;6.47;;;;;;;-3.51;71.76;97157.84;5009730;28;20074;-72
2021/03/21 03:15:17;;;;;;;10.23;6.38;;;;;;;-3.54;71.46;97157.97;5009862;28;20054;-72
2021/03/21 03:17:53;;;;;;;9.88;6.57;;;;;;;-3.55;72.15;97150.41;5009770;28;20121;-72
2021/03/21 03:20:31;;;;;;;10.85;6.38;;;;;;;-3.51;71.70;97155.28;5009613;28;20087;-72
2021/03/21 03:23:11;;;;;;;11.00;6.10;;;;;;;-3.58;71.81;97146.25;5011009;28;20042;-71
2021/03/21 03:25:44;;;;;;;9.80;6.25;;;;;;;-3.49;71.63;97147.59;5010903;28;20057;-72
2021/03/21 03:28:19;;;;;;;9.27;6.22;;;;;;;-3.56;71.30;97139.38;5005003;28;20106;-72
2021/03/21 03:31:08;;;;;;;7.82;5.40;;;;;;;-3.53;71.01;97130.81;5006698;28;20057;-72
2021/03/21 03:33:37;;;;;;;9.10;6.47;;;;;;;-3.59;71.28;97126.00;5010757;28;20076;-72
2021/03/21 03:36:06;;;;;;;8.70;6.10;;;;;;;-3.58;71.49;97137.81;4993455;28;20086;-72
2021/03/21 03:38:33;;;;;;;11.18;6.47;;;;;;;-3.61;71.94;97137.97;5006555;28;20064;-72
2021/03/21 03:41:06;;;;;;;8.43;6.00;;;;;;;-3.49;71.44;97133.13;4993086;28;20050;-72
2021/03/21 03:43:37;;;;;;;9.05;6.25;;;;;;;-3.48;71.59;97147.50;5009654;28;20074;-72
2021/03/21 03:46:08;;;;;;;8.80;5.90;;;;;;;-3.40;71.20;97136.97;5008278;28;20041;-72
2021/03/21 03:48:48;;;;;;;9.10;6.15;;;;;;;-3.55;71.78;97133.41;5005873;28;20033;-72
2021/03/21 03:51:41;;;;;;;9.82;6.25;;;;;;;-3.35;71.24;97122.28;5007509;28;20046;-72
2021/03/21 03:54:13;;;;;;;9.63;5.93;;;;;;;-3.38;70.93;97124.19;5008853;28;20077;-72
2021/03/21 03:56:53;;;;;;;8.50;5.03;;;;;;;-3.30;70.53;97122.09;5009977;28;20042;-72
2021/03/21 03:59:28;;;;;;;16.77;10.75;;;;;;;-3.41;70.83;97129.41;5006152;28;20065;-72
2021/03/21 04:02:08;;;;;;;9.23;5.75;;;;;;;-3.35;70.39;97126.56;5007522;28;20107;-72
2021/03/21 04:04:58;;;;;;;8.85;6.00;;;;;;;-3.36;70.08;97122.41;5010395;28;20061;-72
2021/03/21 04:07:30;;;;;;;9.90;6.13;;;;;;;-3.40;70.09;97120.88;5007156;28;20538;-72
2021/03/21 04:10:04;;;;;;;9.73;5.72;;;;;;;-3.41;70.18;97119.22;5007632;28;20403;-72
2021/03/21 04:12:36;;;;;;;8.95;5.57;;;;;;;-3.40;70.41;97110.69;5009594;28;20038;-72
2021/03/21 04:15:23;;;;;;;9.15;5.32;;;;;;;-3.22;69.64;97114.91;5008085;28;20053;-73
2021/03/21 04:18:11;;;;;;;7.35;5.18;;;;;;;-3.39;70.62;97112.34;5011824;28;20080;-72
2021/03/21 04:20:43;;;;;;;7.60;4.93;;;;;;;-3.33;69.86;97109.50;4979272;28;21131;-72
2021/03/21 04:23:35;;;;;;;7.47;5.10;;;;;;;-3.42;70.08;97110.75;5009227;28;20079;-72
2021/03/21 04:26:14;;;;;;;8.20;5.75;;;;;;;-3.37;69.32;97106.25;5009970;28;20052;-72
2021/03/21 04:28:49;;;;;;;8.48;5.00;;;;;;;-3.27;69.38;97102.41;5009878;28;20051;-72
2021/03/21 04:31:18;;;;;;;8.55;5.03;;;;;;;-3.39;69.74;97091.97;5009911;28;20046;-72
2021/03/21 04:33:48;;;;;;;11.50;5.47;;;;;;;-3.34;69.57;97090.06;5010710;28;20052;-72
2021/03/21 04:36:21;;;;;;;9.18;5.47;;;;;;;-3.43;69.50;97085.38;5009277;28;20140;-72
2021/03/21 04:38:57;;;;;;;9.60;5.57;;;;;;;-3.34;69.37;97085.78;5009905;28;20485;-72
2021/03/21 04:41:27;;;;;;;7.40;5.10;;;;;;;-3.36;69.45;97089.28;5006457;28;20124;-72
2021/03/21 04:44:01;;;;;;;8.20;5.45;;;;;;;-3.39;69.27;97080.06;5008056;28;20042;-72
2021/03/21 04:46:39;;;;;;;8.73;5.35;;;;;;;-3.24;69.78;97072.59;5005217;28;20045;-72
2021/03/21 04:49:05;;;;;;;7.57;4.72;;;;;;;-3.31;69.67;97079.72;5008876;28;20504;-73
2021/03/21 04:51:36;;;;;;;8.18;5.07;;;;;;;-3.27;69.35;97082.03;4994064;28;20064;-72
2021/03/21 04:54:16;;;;;;;7.93;5.45;;;;;;;-3.34;69.49;97064.59;5009578;28;20041;-72
2021/03/21 04:57:05;;;;;;;8.13;5.10;;;;;;;-3.29;69.20;97062.63;5005546;28;20589;-72
2021/03/21 04:59:35;;;;;;;7.93;4.65;;;;;;;-3.24;69.13;97064.94;4982066;28;20045;-72
2021/03/21 05:02:27;;;;;;;7.28;5.03;;;;;;;-3.34;68.69;97064.59;4990012;28;20058;-72
2021/03/21 05:05:20;;;;;;;8.15;4.95;;;;;;;-3.22;68.66;97069.06;4995865;28;20129;-72
2021/03/21 05:07:59;;;;;;;7.13;4.68;;;;;;;-3.39;69.12;97069.88;5009331;28;20061;-72
2021/03/21 05:10:33;;;;;;;7.28;5.32;;;;;;;-3.28;69.40;97064.31;5006512;28;20545;-72
2021/03/21 05:13:16;;;;;;;7.57;4.95;;;;;;;-3.33;68.77;97045.84;5008671;28;20074;-72
2021/03/21 05:15:57;;;;;;;8.32;5.43;;;;;;;-3.21;69.00;97068.19;5007542;28;20050;-72
2021/03/21 05:18:34;;;;;;;7.93;4.80;;;;;;;-3.14;68.65;97079.72;5006162;28;20070;-72
2021/03/21 05:21:04;;;;;;;8.45;5.38;;;;;;;-3.27;69.44;97071.03;5009923;28;20041;-72
2021/03/21 05:23:44;;;;;;;12.48;7.60;;;;;;;-3.37;69.78;97074.91;5008018;28;20120;-72
2021/03/21 05:26:28;;;;;;;10.57;5.65;;;;;;;-3.31;69.31;97082.25;5010563;28;20048;-72
2021/03/21 05:28:54;;;;;;;9.52;5.10;;;;;;;-3.13;69.55;97086.47;5009148;28;20082;-72
2021/03/21 05:31:21;;;;;;;6.88;4.95;;;;;;;-3.10;69.22;97088.84;4995962;28;20131;-72
2021/03/21 05:33:48;;;;;;;;;;;;;;;-3.23;69.28;97087.81;4992836;28;20139;-72
2021/03/21 05:36:33;;;;;;;8.85;5.15;;;;;;;-3.18;68.95;97080.75;5009357;28;19953;-72
2021/03/21 05:39:03;;;;;;;7.25;5.10;;;;;;;-3.05;68.90;97085.28;5008951;28;20137;-72
2021/03/21 05:41:37;;;;;;;9.27;6.43;;;;;;;-2.99;69.25;97085.78;5006476;28;20109;-72
2021/03/21 05:44:24;;;;;;;11.73;7.35;;;;;;;-3.02;69.48;97080.03;5008134;28;20048;-72
2021/03/21 05:47:24;;;;;;;8.07;5.68;;;;;;;-3.02;70.87;97077.50;4992858;28;20046;-72
2021/03/21 05:50:32;;;;;;;6.97;5.10;;;;;;;-2.87;68.53;97084.38;4999745;28;20057;-72
2021/03/21 05:52:58;;;;;;;6.93;4.85;;;;;;;-2.78;68.87;97083.91;4994643;28;20533;-73
2021/03/21 05:55:48;;;;;;;8.30;4.90;;;;;;;-2.74;68.62;97082.88;5011402;28;20078;-72
2021/03/21 05:58:36;;;;;;;7.60;4.80;;;;;;;-2.69;68.27;97082.63;5009863;28;20136;-72
2021/03/21 06:01:43;;;;;;;8.13;4.95;;;;;;;-2.63;67.73;97077.22;5009903;28;20037;-72
2021/03/21 06:04:29;;;;;;;7.75;5.20;;;;;;;-2.66;69.35;97078.22;4980291;28;20050;-72
2021/03/21 06:07:13;;;;;;;8.93;5.93;;;;;;;-2.74;68.84;97077.75;5011280;28;20038;-72
2021/03/21 06:09:55;;;;;;;11.27;6.28;;;;;;;-2.63;69.80;97084.06;4995011;28;20542;-72
2021/03/21 06:12:31;;;;;;;8.82;6.30;;;;;;;-2.38;69.25;97079.38;5013336;28;20054;-72
2021/03/21 06:15:15;;;;;;;9.05;5.32;;;;;;;-2.43;69.00;97078.78;5009023;28;20048;-72
2021/03/21 06:18:20;;;;;;;8.45;4.97;;;;;;;-2.40;68.91;97063.31;5010463;28;20106;-72
2021/03/21 06:20:53;;;;;;;9.02;4.90;;;;;;;-2.42;69.02;97065.13;5009855;28;20046;-72
2021/03/21 06:23:40;;;;;;;8.80;4.57;;;;;;;-2.58;69.10;97074.44;5012174;28;20076;-72
2021/03/21 06:26:33;;;;;;;6.93;4.90;;;;;;;-2.50;68.45;97065.53;5010476;28;20493;-72
2021/03/21 06:29:34;;;;;;;6.75;4.57;;;;;;;-2.52;68.25;97064.78;5010458;28;20082;-72
2021/03/21 06:32:06;;;;;;;7.47;4.03;;;;;;;-2.41;67.45;97045.53;4994429;28;20044;-72
2021/03/21 06:34:49;;;;;;;7.35;4.88;;;;;;;-2.25;67.16;97042.13;5013466;28;20485;-72
2021/03/21 06:37:31;;;;;;;8.38;4.80;;;;;;;-2.32;67.50;97051.00;5010279;28;20046;-71
2021/03/21 06:40:28;;;;;;;8.50;5.05;;;;;;;-2.37;67.98;97037.69;5009794;28;20053;-72
2021/03/21 06:43:26;;;;;;;7.60;4.93;;;;;;;-2.06;66.44;97036.06;5009331;28;20558;-72
2021/03/21 06:46:03;;;;;;;9.45;5.00;;;;;;;-2.07;66.76;97029.31;4940442;28;20046;-72
2021/03/21 06:48:42;;;;;;;10.53;4.63;;;;;;;-1.80;65.94;97034.63;4994614;28;20045;-72
2021/03/21 06:51:22;;;;;;;8.32;5.40;;;;;;;-1.80;65.80;97034.63;5010269;28;20042;-72
2021/03/21 06:54:30;;;;;;;6.45;4.50;;;;;;;-1.68;65.36;97016.09;5007942;28;20513;-72
2021/03/21 06:57:21;;;;;;;7.88;4.95;;;;;;;-1.77;65.57;97024.28;5006585;28;20057;-72
2021/03/21 07:00:17;;;;;;;7.47;4.35;;;;;;;-1.36;64.85;97021.16;4993703;28;20045;-72
2021/03/21 07:03:08;;;;;;;5.97;4.00;;;;;;;-1.77;65.54;97015.81;4992820;28;20053;-72
2021/03/21 07:05:57;;;;;;;6.07;4.53;;;;;;;-1.80;65.60;97016.78;5006275;28;20034;-71
2021/03/21 07:08:44;;;;;;;5.70;4.13;;;;;;;-1.93;66.41;97006.41;5005874;28;20180;-71
2021/03/21 07:11:31;;;;;;;8.38;4.60;;;;;;;-1.92;66.42;97004.72;4972928;28;20043;-72
2021/03/21 07:14:40;;;;;;;5.95;4.40;;;;;;;-2.02;66.57;97006.09;4994561;28;20038;-71
2021/03/21 07:17:37;;;;;;;7.32;4.55;;;;;;;-1.79;66.40;97003.13;5010151;28;20080;-68
2021/03/21 07:20:21;;;;;;;6.05;4.07;;;;;;;-1.81;65.90;97011.78;4994977;28;20125;-68
2021/03/21 07:23:22;;;;;;;12.60;4.88;;;;;;;-1.78;66.55;96999.66;5007351;28;20073;-67
2021/03/21 07:26:07;;;;;;;7.20;5.00;;;;;;;-1.67;65.95;96992.25;5006203;28;20298;-68
2021/03/21 07:29:09;;;;;;;7.30;5.00;;;;;;;-1.61;65.38;96985.13;5007347;28;20057;-67
2021/03/21 07:32:01;;;;;;;6.25;4.18;;;;;;;-1.45;64.76;96989.31;5011236;28;20053;-70
2021/03/21 07:34:27;;;;;;;21.48;11.95;;;;;;;-1.44;65.24;96996.06;5004744;28;20052;-71
2021/03/21 07:37:23;;;;;;;8.63;5.18;;;;;;;-1.31;63.37;96978.31;4993614;28;20038;-72
2021/03/21 07:40:11;;;;;;;9.88;5.90;;;;;;;-1.24;63.91;96994.94;5003749;28;20136;-71
2021/03/21 07:43:02;;;;;;;12.40;7.50;;;;;;;-1.45;64.09;96993.59;5010389;28;20130;-74
2021/03/21 07:45:33;;;;;;;6.88;4.15;;;;;;;-1.34;63.87;96993.00;5009246;28;20048;-73
2021/03/21 07:48:20;;;;;;;6.40;3.88;;;;;;;-1.32;63.42;96996.28;5008743;28;20045;-73
2021/03/21 07:50:54;;;;;;;7.43;4.43;;;;;;;-1.18;63.31;96975.88;5012185;28;20187;-74
2021/03/21 07:53:42;;;;;;;10.93;4.53;;;;;;;-0.88;63.15;96975.00;5006031;28;20104;-72
2021/03/21 07:56:28;;;;;;;6.82;4.45;;;;;;;-0.74;61.75;96958.84;5010358;28;20034;-73
2021/03/21 07:59:04;;;;;;;7.65;4.45;;;;;;;-0.49;61.79;96966.69;5007719;28;20574;-70
2021/03/21 08:01:30;;;;;;;6.32;4.00;;;;;;;-1.11;62.62;96974.59;5009373;28;20074;-70
2021/03/21 08:04:05;;;;;;;5.60;3.92;;;;;;;-0.80;62.41;96957.50;4994397;28;21962;-73
2021/03/21 08:06:40;;;;;;;6.47;4.10;;;;;;;-0.70;62.13;96963.72;4994290;28;20042;-69
2021/03/21 08:09:19;;;;;;;5.00;3.92;;;;;;;-1.05;63.15;96971.69;4993004;28;20184;-70
2021/03/21 08:12:00;;;;;;;6.38;4.40;;;;;;;-0.94;62.67;96970.25;4994103;28;20061;-70
2021/03/21 08:14:39;;;;;;;7.32;4.30;;;;;;;-0.94;62.64;96965.97;5006157;28;20045;-70
2021/03/21 08:17:16;;;;;;;6.32;4.22;;;;;;;-1.10;63.64;96970.31;5005919;28;20049;-70
2021/03/21 08:19:43;;;;;;;7.28;4.55;;;;;;;-1.21;64.38;96968.38;4977345;28;20050;-71
2021/03/21 08:22:16;;;;;;;9.40;4.47;;;;;;;-1.19;64.19;96971.66;4991657;28;20076;-69
2021/03/21 08:24:44;;;;;;;5.13;3.97;;;;;;;-1.42;64.84;96969.63;5007176;28;20044;-69
2021/03/21 08:27:28;;;;;;;6.32;3.90;;;;;;;-1.27;64.97;96966.19;5007340;28;20121;-70
2021/03/21 08:30:11;;;;;;;6.57;4.18;;;;;;;-1.38;64.43;96961.69;5007613;28;20052;-70
2021/03/21 08:32:53;;;;;;;7.00;4.30;;;;;;;-1.35;64.91;96955.59;5006644;28;20042;-72
2021/03/21 08:35:26;;;;;;;6.43;4.50;;;;;;;-1.15;64.67;96962.91;4994007;28;20048;-73
2021/03/21 08:37:55;;;;;;;8.20;4.13;;;;;;;-1.30;64.83;96959.53;5009035;28;20041;-72
2021/03/21 08:40:24;;;;;;;6.28;4.05;;;;;;;-1.34;64.93;96955.50;4978074;28;20085;-72
2021/03/21 08:42:55;;;;;;;6.32;4.80;;;;;;;-1.29;65.39;96945.84;5009320;28;20045;-72
2021/03/21 08:45:29;;;;;;;6.05;4.30;;;;;;;-1.16;64.85;96948.50;5008896;28;20050;-71
2021/03/21 08:48:20;;;;;;;12.05;4.65;;;;;;;-1.03;65.11;96953.72;5009707;28;20042;-71
2021/03/21 08:50:59;;;;;;;9.40;4.85;;;;;;;-1.19;64.65;96952.97;5011502;28;20045;-70
2021/03/21 08:53:35;;;;;;;9.45;4.40;;;;;;;-1.28;65.55;96944.94;5011410;28;20070;-70
2021/03/21 08:56:12;;;;;;;7.22;3.97;;;;;;;-1.30;65.19;96935.72;5012695;28;20037;-70
2021/03/21 08:58:41;;;;;;;10.50;4.80;;;;;;;-1.12;65.26;96939.75;5009007;28;20572;-71
2021/03/21 09:01:25;;;;;;;9.25;4.50;;;;;;;-1.11;64.62;96932.91;5007828;28;20042;-71
2021/03/21 09:04:13;;;;;;;7.65;3.83;;;;;;;-1.07;64.69;96937.75;5006659;28;20073;-69
2021/03/21 09:06:43;;;;;;;6.22;3.97;;;;;;;-1.03;65.21;96936.66;5008508;28;20562;-71
2021/03/21 09:09:34;;;;;;;7.28;4.57;;;;;;;-1.15;64.52;96931.44;5004801;28;20046;-70
2021/03/21 09:12:23;;;;;;;7.68;4.38;;;;;;;-0.77;64.12;96933.47;5006481;28;20102;-70
2021/03/21 09:15:11;;;;;;;15.10;7.97;;;;;;;-1.00;64.59;96942.50;5011946;28;20041;-70
2021/03/21 09:17:38;;;;;;;6.43;4.22;;;;;;;-0.95;64.21;96943.03;5011207;28;20530;-69
2021/03/21 09:20:05;;;;;;;5.93;3.92;;;;;;;-0.68;63.20;96930.34;4994700;28;20100;-70
2021/03/21 09:22:38;;;;;;;8.05;4.82;;;;;;;-0.84;63.80;96945.81;5013813;28;20129;-70
2021/03/21 09:25:28;;;;;;;9.40;5.85;;;;;;;-0.62;64.50;96938.47;4995854;28;20085;-70
2021/03/21 09:27:57;;;;;;;7.28;4.65;;;;;;;-0.66;63.55;96937.03;5012852;28;20120;-70
2021/03/21 09:30:36;;;;;;;6.90;4.22;;;;;;;-0.72;63.98;96929.75;4996360;28;20046;-70
2021/03/21 09:33:08;;;;;;;5.68;3.88;;;;;;;-0.52;63.24;96912.34;5018197;28;20102;-71
2021/03/21 09:35:38;;;;;;;10.00;4.68;;;;;;;-0.59;63.33;96932.38;5019250;28;20038;-71
2021/03/21 09:38:15;;;;;;;7.28;4.30;;;;;;;-0.75;64.21;96912.00;5018290;28;20041;-71
2021/03/21 09:40:45;;;;;;;7.20;4.22;;;;;;;-0.71;64.19;96925.44;5018701;28;20120;-71
2021/03/21 09:43:15;;;;;;;7.28;4.65;;;;;;;-0.73;64.29;96935.75;4985557;28;20072;-70
2021/03/21 09:45:47;;;;;;;9.30;4.93;;;;;;;-0.52;63.92;96938.75;5019304;28;20046;-71
2021/03/21 09:48:36;;;;;;;7.68;4.38;;;;;;;-0.58;64.11;96928.06;5001753;28;20079;-73
2021/03/21 09:51:15;;;;;;;8.38;4.93;;;;;;;-0.52;64.41;96935.38;5017711;28;20077;-72
2021/03/21 09:53:46;;;;;;;;;;;;;;;-0.49;64.34;96933.44;5012144;28;20148;-73
2021/03/21 09:56:23;;;;;;;5.93;3.60;;;;;;;-0.62;63.55;96938.47;5013047;28;19965;-73
2021/03/21 09:59:06;;;;;;;6.13;3.85;;;;;;;-0.34;62.91;96928.28;5011456;28;20092;-72
2021/03/21 10:02:12;;;;;;;6.95;4.30;;;;;;;-0.05;62.91;96921.38;5001862;28;20048;-74
2021/03/21 10:04:51;;;;;;;8.02;4.45;;;;;;;-0.29;63.34;96936.53;4995501;28;20049;-71
2021/03/21 10:07:29;;;;;;;7.07;4.22;;;;;;;-0.17;62.31;96934.94;5009504;28;20460;-72
2021/03/21 10:10:01;;;;;;;6.18;3.97;;;;;;;0.09;62.79;96920.50;5015862;28;20061;-72
2021/03/21 10:12:28;;;;;;;7.35;4.07;;;;;;;-0.10;62.29;96920.84;5001073;28;20049;-73
2021/03/21 10:15:07;;;;;;;5.57;3.30;;;;;;;-0.33;62.43;96923.09;5015907;28;20784;-71
2021/03/21 10:17:34;;;;;;;6.88;4.40;;;;;;;0.04;62.33;96912.28;4998163;28;20102;-72
2021/03/21 10:20:00;;;;;;;6.45;3.88;;;;;;;-0.02;61.45;96903.28;5013922;28;20037;-70
2021/03/21 10:22:26;;;;;;;6.38;4.25;;;;;;;-0.05;61.24;96916.25;5012403;28;20049;-70
2021/03/21 10:24:58;;;;;;;7.32;4.28;;;;;;;0.42;60.77;96904.69;4998048;28;20352;-70
2021/03/21 10:27:28;;;;;;;4.32;2.83;;;;;;;0.28;60.25;96912.47;5009321;28;20090;-72
2021/03/21 10:30:13;;;;;;;8.07;3.67;;;;;;;0.33;60.36;96905.31;5014089;28;20125;-72
2021/03/21 10:32:49;;;;;;;6.45;3.42;;;;;;;0.44;60.30;96900.31;5011571;28;20070;-71
2021/03/21 10:35:32;;;;;;;5.93;3.90;;;;;;;0.57;60.40;96906.28;5008074;28;20113;-72
2021/03/21 10:38:24;;;;;;;9.07;4.18;;;;;;;0.53;59.24;96889.47;5008726;28;20069;-70
2021/03/21 10:40:50;;;;;;;6.88;3.90;;;;;;;1.22;58.43;96889.13;4974723;28;20442;-71
2021/03/21 10:43:17;;;;;;;11.13;4.18;;;;;;;0.56;59.41;96889.25;5010563;28;20046;-70
2021/03/21 10:45:43;;;;;;;6.18;3.75;;;;;;;0.29;59.83;96891.06;4996277;28;20104;-73
2021/03/21 10:48:29;;;;;;;6.07;4.28;;;;;;;0.62;58.56;96884.66;5011686;28;20045;-72
2021/03/21 10:51:00;;;;;;;4.80;3.60;;;;;;;0.50;59.79;96884.53;5017871;28;20045;-71
2021/03/21 10:53:31;;;;;;;8.65;4.18;;;;;;;0.76;59.42;96880.25;5011952;28;20635;-71
2021/03/21 10:56:00;;;;;;;6.47;4.10;;;;;;;0.44;59.79;96884.13;5013677;28;20034;-70
2021/03/21 10:58:38;;;;;;;6.32;3.92;;;;;;;0.62;58.61;96874.41;5013065;28;20069;-72
2021/03/21 11:01:32;;;;;;;6.60;3.65;;;;;;;1.06;58.17;96879.13;5014609;28;20042;-72
2021/03/21 11:04:01;;;;;;;5.38;3.83;;;;;;;1.14;58.60;96878.56;5012148;28;20049;-70
2021/03/21 11:06:31;;;;;;;7.80;3.53;;;;;;;1.10;58.70;96879.72;5013327;28;20034;-68
2021/03/21 11:09:12;;;;;;;6.82;3.80;;;;;;;1.08;59.58;96873.88;4999411;28;20084;-70
2021/03/21 11:11:43;;;;;;;8.15;3.92;;;;;;;1.16;58.67;96862.16;5014239;28;20129;-68
2021/03/21 11:14:25;;;;;;;8.82;4.05;;;;;;;0.70;59.84;96860.19;5013701;28;20134;-70
2021/03/21 11:16:57;;;;;;;4.88;3.25;;;;;;;0.98;59.37;96866.00;5006452;28;20516;-71
2021/03/21 11:19:44;;;;;;;13.52;4.32;;;;;;;0.76;61.18;96853.78;4994237;28;20044;-63
2021/03/21 11:22:22;;;;;;;8.60;4.50;;;;;;;1.46;60.06;96853.28;4993990;28;20132;-64
2021/03/21 11:24:48;;;;;;;11.10;4.70;;;;;;;1.23;58.86;96847.19;4998232;28;20050;-71
2021/03/21 11:27:28;;;;;;;6.72;4.43;;;;;;;2.08;58.06;96839.47;5000510;28;20481;-70
2021/03/21 11:30:05;;;;;;;12.70;8.50;;;;;;;1.76;57.78;96837.47;4985081;28;20069;-70
2021/03/21 11:32:32;;;;;;;13.87;6.00;;;;;;;1.76;59.26;96845.16;4987505;28;20046;-70
2021/03/21 11:35:25;;;;;;;6.47;4.72;;;;;;;2.82;55.31;96839.97;5002276;28;20295;-71
2021/03/21 11:37:56;;;;;;;9.63;5.63;;;;;;;4.08;54.90;96845.59;4988125;28;20060;-70
2021/03/21 11:40:31;;;;;;;6.55;3.90;;;;;;;3.95;54.41;96831.22;5004853;28;20121;-71
2021/03/21 11:43:19;;;;;;;5.97;4.10;;;;;;;4.79;51.02;96828.66;5009246;28;20041;-71
2021/03/21 11:45:45;;;;;;;5.10;4.10;;;;;;;6.23;46.61;96826.53;5006063;28;20553;-70
2021/03/21 11:48:25;;;;;;;7.43;4.68;;;;;;;5.92;47.78;96823.22;5007010;28;20073;-71
2021/03/21 11:50:55;;;;;;;8.38;4.50;;;;;;;6.24;46.20;96814.41;5009869;28;20052;-70
2021/03/21 11:53:29;;;;;;;6.55;4.10;;;;;;;9.23;39.87;96817.84;5007375;28;20049;-70
2021/03/21 11:56:07;;;;;;;5.45;4.03;;;;;;;8.24;42.15;96811.25;5009922;28;20132;-70
2021/03/21 11:58:45;;;;;;;5.90;3.97;;;;;;;9.31;41.66;96812.69;5006848;28;21216;-71
2021/03/21 12:01:18;;;;;;;6.70;4.00;;;;;;;6.78;45.82;96805.19;5007501;28;20045;-70
2021/03/21 12:03:49;;;;;;;5.45;3.58;;;;;;;4.52;49.91;96811.94;5005246;28;20088;-71
2021/03/21 12:06:27;;;;;;;7.10;4.05;;;;;;;3.04;56.21;96813.41;5007492;28;20393;-70
2021/03/21 12:08:55;;;;;;;8.10;4.25;;;;;;;2.83;58.45;96805.59;5004045;28;20120;-70
2021/03/21 12:11:24;;;;;;;6.30;4.20;;;;;;;3.20;57.73;96805.34;5007150;28;20409;-70
2021/03/21 12:13:52;;;;;;;8.20;4.40;;;;;;;2.39;58.78;96799.50;5007601;28;20046;-70
2021/03/21 12:16:36;;;;;;;8.27;4.60;;;;;;;3.06;58.84;96796.09;5006023;28;20065;-70
2021/03/21 12:19:05;;;;;;;5.40;4.05;;;;;;;2.89;59.01;96794.03;4992709;28;20074;-70